sensor_id;sensor_type;location;lat;lon;timestamp;P1;durP1;ratioP1;P2;durP2;ratioP2
7965;SDS011;4028;43.272;26.932;2022-12-16T00:02:18;45.53;;;31.80;;
7965;SDS011;4028;43.272;26.932;2022-12-16T00:04:44;42.80;;;30.50;;
7965;SDS011;4028;43.272;26.932;2022-12-16T00:07:09;45.63;;;29.83;;
7965;SDS011;4028;43.272;26.932;2022-12-16T00:09:35;37.90;;;28.40;;
7965;SDS011;4028;43.272;26.932;2022-12-16T00:12:00;37.50;;;26.83;;
7965;SDS011;4028;43.272;26.932;2022-12-16T00:14:26;39.80;;;28.13;;
7965;SDS011;4028;43.272;26.932;2022-12-16T00:16:53;37.80;;;27.67;;
7965;SDS011;4028;43.272;26.932;2022-12-16T00:19:18;36.43;;;27.67;;
7965;SDS011;4028;43.272;26.932;2022-12-16T00:21:44;42.43;;;29.77;;
7965;SDS011;4028;43.272;26.932;2022-12-16T00:24:09;41.00;;;27.73;;
7965;SDS011;4028;43.272;26.932;2022-12-16T00:26:35;39.30;;;28.03;;
7965;SDS011;4028;43.272;26.932;2022-12-16T00:29:01;35.77;;;27.17;;
7965;SDS011;4028;43.272;26.932;2022-12-16T00:31:29;35.87;;;27.60;;
7965;SDS011;4028;43.272;26.932;2022-12-16T00:33:55;39.40;;;28.27;;
7965;SDS011;4028;43.272;26.932;2022-12-16T00:36:21;38.57;;;27.40;;
7965;SDS011;4028;43.272;26.932;2022-12-16T00:38:47;39.27;;;27.23;;
7965;SDS011;4028;43.272;26.932;2022-12-16T00:41:12;36.70;;;27.10;;
7965;SDS011;4028;43.272;26.932;2022-12-16T00:43:38;38.33;;;26.57;;
7965;SDS011;4028;43.272;26.932;2022-12-16T00:46:03;37.33;;;26.80;;
7965;SDS011;4028;43.272;26.932;2022-12-16T00:48:29;35.80;;;24.33;;
7965;SDS011;4028;43.272;26.932;2022-12-16T00:50:54;34.53;;;24.33;;
7965;SDS011;4028;43.272;26.932;2022-12-16T00:53:20;35.50;;;24.43;;
7965;SDS011;4028;43.272;26.932;2022-12-16T00:55:46;33.80;;;24.23;;
7965;SDS011;4028;43.272;26.932;2022-12-16T00:58:12;32.60;;;24.17;;
7965;SDS011;4028;43.272;26.932;2022-12-16T01:00:38;27.33;;;20.67;;
7965;SDS011;4028;43.272;26.932;2022-12-16T01:03:04;31.57;;;22.23;;
7965;SDS011;4028;43.272;26.932;2022-12-16T01:05:30;29.10;;;22.13;;
7965;SDS011;4028;43.272;26.932;2022-12-16T01:07:55;30.50;;;22.40;;
7965;SDS011;4028;43.272;26.932;2022-12-16T01:10:22;28.77;;;21.77;;
7965;SDS011;4028;43.272;26.932;2022-12-16T01:12:48;30.77;;;20.97;;
7965;SDS011;4028;43.272;26.932;2022-12-16T01:15:14;33.77;;;22.90;;
7965;SDS011;4028;43.272;26.932;2022-12-16T01:17:40;29.53;;;21.57;;
7965;SDS011;4028;43.272;26.932;2022-12-16T01:20:06;34.10;;;23.33;;
7965;SDS011;4028;43.272;26.932;2022-12-16T01:22:33;31.87;;;23.67;;
7965;SDS011;4028;43.272;26.932;2022-12-16T01:24:59;34.00;;;25.13;;
7965;SDS011;4028;43.272;26.932;2022-12-16T01:27:25;35.00;;;26.47;;
7965;SDS011;4028;43.272;26.932;2022-12-16T01:29:51;36.40;;;25.90;;
7965;SDS011;4028;43.272;26.932;2022-12-16T01:32:18;31.10;;;23.53;;
7965;SDS011;4028;43.272;26.932;2022-12-16T01:34:47;30.93;;;23.10;;
7965;SDS011;4028;43.272;26.932;2022-12-16T01:37:14;31.20;;;24.13;;
7965;SDS011;4028;43.272;26.932;2022-12-16T01:39:40;33.93;;;23.63;;
7965;SDS011;4028;43.272;26.932;2022-12-16T01:42:12;32.43;;;23.57;;
7965;SDS011;4028;43.272;26.932;2022-12-16T01:44:43;31.93;;;23.23;;
7965;SDS011;4028;43.272;26.932;2022-12-16T01:47:14;34.47;;;21.47;;
7965;SDS011;4028;43.272;26.932;2022-12-16T01:49:46;30.20;;;21.90;;
7965;SDS011;4028;43.272;26.932;2022-12-16T01:52:46;29.63;;;21.90;;
7965;SDS011;4028;43.272;26.932;2022-12-16T01:55:23;28.37;;;20.63;;
7965;SDS011;4028;43.272;26.932;2022-12-16T01:57:54;27.47;;;20.50;;
7965;SDS011;4028;43.272;26.932;2022-12-16T02:00:26;26.03;;;20.37;;
7965;SDS011;4028;43.272;26.932;2022-12-16T02:02:51;26.83;;;20.33;;
7965;SDS011;4028;43.272;26.932;2022-12-16T02:05:17;29.33;;;20.33;;
7965;SDS011;4028;43.272;26.932;2022-12-16T02:07:53;25.07;;;19.90;;
7965;SDS011;4028;43.272;26.932;2022-12-16T02:16:22;22.73;;;18.00;;
7965;SDS011;4028;43.272;26.932;2022-12-16T02:19:03;22.43;;;17.77;;
7965;SDS011;4028;43.272;26.932;2022-12-16T02:22:03;23.47;;;18.47;;
7965;SDS011;4028;43.272;26.932;2022-12-16T02:30:04;23.57;;;18.60;;
7965;SDS011;4028;43.272;26.932;2022-12-16T02:35:08;27.03;;;18.60;;
7965;SDS011;4028;43.272;26.932;2022-12-16T02:41:00;24.97;;;19.17;;
7965;SDS011;4028;43.272;26.932;2022-12-16T02:46:14;25.83;;;19.67;;
7965;SDS011;4028;43.272;26.932;2022-12-16T02:48:42;26.67;;;21.00;;
7965;SDS011;4028;43.272;26.932;2022-12-16T02:51:07;33.53;;;23.60;;
7965;SDS011;4028;43.272;26.932;2022-12-16T02:53:34;30.80;;;21.87;;
7965;SDS011;4028;43.272;26.932;2022-12-16T02:59:10;26.20;;;19.90;;
7965;SDS011;4028;43.272;26.932;2022-12-16T03:04:46;28.83;;;22.00;;
7965;SDS011;4028;43.272;26.932;2022-12-16T03:07:17;27.27;;;20.73;;
7965;SDS011;4028;43.272;26.932;2022-12-16T03:09:46;29.40;;;20.80;;
7965;SDS011;4028;43.272;26.932;2022-12-16T03:12:14;29.50;;;22.23;;
7965;SDS011;4028;43.272;26.932;2022-12-16T03:14:43;28.53;;;22.17;;
7965;SDS011;4028;43.272;26.932;2022-12-16T03:17:12;32.00;;;23.93;;
7965;SDS011;4028;43.272;26.932;2022-12-16T03:19:40;29.63;;;23.00;;
7965;SDS011;4028;43.272;26.932;2022-12-16T03:22:13;30.93;;;21.87;;
7965;SDS011;4028;43.272;26.932;2022-12-16T03:24:44;27.47;;;21.67;;
7965;SDS011;4028;43.272;26.932;2022-12-16T03:27:18;29.13;;;20.97;;
7965;SDS011;4028;43.272;26.932;2022-12-16T03:35:30;27.10;;;20.13;;
7965;SDS011;4028;43.272;26.932;2022-12-16T03:38:03;23.83;;;18.87;;
7965;SDS011;4028;43.272;26.932;2022-12-16T03:40:31;28.50;;;20.67;;
7965;SDS011;4028;43.272;26.932;2022-12-16T03:42:59;25.27;;;19.33;;
7965;SDS011;4028;43.272;26.932;2022-12-16T03:45:27;25.77;;;19.97;;
7965;SDS011;4028;43.272;26.932;2022-12-16T03:47:56;28.73;;;19.93;;
7965;SDS011;4028;43.272;26.932;2022-12-16T03:50:28;30.70;;;21.07;;
7965;SDS011;4028;43.272;26.932;2022-12-16T03:52:56;31.57;;;22.10;;
7965;SDS011;4028;43.272;26.932;2022-12-16T03:55:21;29.90;;;21.70;;
7965;SDS011;4028;43.272;26.932;2022-12-16T03:57:47;31.57;;;21.83;;
7965;SDS011;4028;43.272;26.932;2022-12-16T04:00:13;35.67;;;21.23;;
7965;SDS011;4028;43.272;26.932;2022-12-16T04:02:39;35.80;;;22.40;;
7965;SDS011;4028;43.272;26.932;2022-12-16T04:05:04;31.30;;;21.90;;
7965;SDS011;4028;43.272;26.932;2022-12-16T04:07:30;35.33;;;21.97;;
7965;SDS011;4028;43.272;26.932;2022-12-16T04:09:56;39.07;;;23.23;;
7965;SDS011;4028;43.272;26.932;2022-12-16T04:12:21;38.40;;;24.17;;
7965;SDS011;4028;43.272;26.932;2022-12-16T04:15:06;45.07;;;23.80;;
7965;SDS011;4028;43.272;26.932;2022-12-16T04:17:51;41.40;;;24.33;;
7965;SDS011;4028;43.272;26.932;2022-12-16T04:20:35;42.30;;;26.47;;
7965;SDS011;4028;43.272;26.932;2022-12-16T04:23:22;46.63;;;27.13;;
7965;SDS011;4028;43.272;26.932;2022-12-16T04:26:09;53.77;;;28.27;;
7965;SDS011;4028;43.272;26.932;2022-12-16T04:28:35;46.67;;;27.07;;
7965;SDS011;4028;43.272;26.932;2022-12-16T04:31:00;47.23;;;27.23;;
7965;SDS011;4028;43.272;26.932;2022-12-16T04:33:26;51.87;;;26.43;;
7965;SDS011;4028;43.272;26.932;2022-12-16T04:36:11;41.17;;;26.43;;
7965;SDS011;4028;43.272;26.932;2022-12-16T04:38:59;47.20;;;27.87;;
7965;SDS011;4028;43.272;26.932;2022-12-16T04:41:44;48.03;;;27.80;;
7965;SDS011;4028;43.272;26.932;2022-12-16T04:44:28;50.90;;;29.40;;
7965;SDS011;4028;43.272;26.932;2022-12-16T04:47:12;47.77;;;29.13;;
7965;SDS011;4028;43.272;26.932;2022-12-16T04:49:56;47.07;;;29.93;;
7965;SDS011;4028;43.272;26.932;2022-12-16T04:52:39;55.83;;;30.40;;
7965;SDS011;4028;43.272;26.932;2022-12-16T04:55:23;51.20;;;28.87;;
7965;SDS011;4028;43.272;26.932;2022-12-16T04:58:07;53.37;;;28.57;;
7965;SDS011;4028;43.272;26.932;2022-12-16T05:00:51;51.60;;;27.90;;
7965;SDS011;4028;43.272;26.932;2022-12-16T05:03:35;49.83;;;28.60;;
7965;SDS011;4028;43.272;26.932;2022-12-16T05:06:19;55.03;;;29.63;;
7965;SDS011;4028;43.272;26.932;2022-12-16T05:09:04;53.43;;;29.57;;
7965;SDS011;4028;43.272;26.932;2022-12-16T05:11:49;58.87;;;31.70;;
7965;SDS011;4028;43.272;26.932;2022-12-16T05:14:33;54.10;;;29.93;;
7965;SDS011;4028;43.272;26.932;2022-12-16T05:17:17;57.47;;;30.93;;
7965;SDS011;4028;43.272;26.932;2022-12-16T05:20:02;57.70;;;31.47;;
7965;SDS011;4028;43.272;26.932;2022-12-16T05:22:47;64.60;;;35.00;;
7965;SDS011;4028;43.272;26.932;2022-12-16T05:25:30;70.17;;;34.70;;
7965;SDS011;4028;43.272;26.932;2022-12-16T05:28:14;67.97;;;33.70;;
7965;SDS011;4028;43.272;26.932;2022-12-16T05:30:58;74.90;;;34.93;;
7965;SDS011;4028;43.272;26.932;2022-12-16T05:33:42;81.20;;;35.90;;
7965;SDS011;4028;43.272;26.932;2022-12-16T05:36:26;68.77;;;35.03;;
7965;SDS011;4028;43.272;26.932;2022-12-16T05:39:10;71.77;;;36.13;;
7965;SDS011;4028;43.272;26.932;2022-12-16T05:41:54;73.13;;;35.70;;
7965;SDS011;4028;43.272;26.932;2022-12-16T05:44:39;74.30;;;35.00;;
7965;SDS011;4028;43.272;26.932;2022-12-16T05:47:23;80.83;;;36.80;;
7965;SDS011;4028;43.272;26.932;2022-12-16T05:50:09;82.80;;;37.50;;
7965;SDS011;4028;43.272;26.932;2022-12-16T05:52:54;83.67;;;38.67;;
7965;SDS011;4028;43.272;26.932;2022-12-16T05:55:40;74.17;;;36.07;;
7965;SDS011;4028;43.272;26.932;2022-12-16T05:58:24;83.87;;;37.20;;
7965;SDS011;4028;43.272;26.932;2022-12-16T06:01:08;77.27;;;36.67;;
7965;SDS011;4028;43.272;26.932;2022-12-16T06:03:53;89.77;;;40.13;;
7965;SDS011;4028;43.272;26.932;2022-12-16T06:06:37;83.40;;;35.97;;
7965;SDS011;4028;43.272;26.932;2022-12-16T06:09:21;95.57;;;43.53;;
7965;SDS011;4028;43.272;26.932;2022-12-16T06:12:06;91.97;;;43.20;;
7965;SDS011;4028;43.272;26.932;2022-12-16T06:14:50;104.00;;;41.70;;
7965;SDS011;4028;43.272;26.932;2022-12-16T06:17:34;99.53;;;42.07;;
7965;SDS011;4028;43.272;26.932;2022-12-16T06:20:18;98.00;;;39.93;;
7965;SDS011;4028;43.272;26.932;2022-12-16T06:23:02;91.30;;;40.50;;
7965;SDS011;4028;43.272;26.932;2022-12-16T06:25:46;97.67;;;40.20;;
7965;SDS011;4028;43.272;26.932;2022-12-16T06:28:30;93.33;;;39.53;;
7965;SDS011;4028;43.272;26.932;2022-12-16T06:31:14;97.57;;;41.23;;
7965;SDS011;4028;43.272;26.932;2022-12-16T06:33:58;97.73;;;37.93;;
7965;SDS011;4028;43.272;26.932;2022-12-16T06:36:42;94.40;;;41.37;;
7965;SDS011;4028;43.272;26.932;2022-12-16T06:39:26;100.60;;;41.70;;
7965;SDS011;4028;43.272;26.932;2022-12-16T06:42:09;99.47;;;41.90;;
7965;SDS011;4028;43.272;26.932;2022-12-16T06:44:53;103.30;;;43.27;;
7965;SDS011;4028;43.272;26.932;2022-12-16T06:47:38;98.77;;;45.10;;
7965;SDS011;4028;43.272;26.932;2022-12-16T06:50:22;96.13;;;44.17;;
7965;SDS011;4028;43.272;26.932;2022-12-16T06:53:06;97.80;;;44.23;;
7965;SDS011;4028;43.272;26.932;2022-12-16T06:55:50;94.23;;;42.37;;
7965;SDS011;4028;43.272;26.932;2022-12-16T06:58:34;93.73;;;41.50;;
7965;SDS011;4028;43.272;26.932;2022-12-16T07:01:17;97.73;;;41.20;;
7965;SDS011;4028;43.272;26.932;2022-12-16T07:04:01;100.40;;;44.00;;
7965;SDS011;4028;43.272;26.932;2022-12-16T07:06:45;95.47;;;45.00;;
7965;SDS011;4028;43.272;26.932;2022-12-16T07:09:29;100.23;;;46.00;;
7965;SDS011;4028;43.272;26.932;2022-12-16T07:12:13;100.80;;;48.70;;
7965;SDS011;4028;43.272;26.932;2022-12-16T07:14:57;112.07;;;51.07;;
7965;SDS011;4028;43.272;26.932;2022-12-16T07:17:43;109.83;;;52.20;;
7965;SDS011;4028;43.272;26.932;2022-12-16T07:20:28;116.50;;;54.57;;
7965;SDS011;4028;43.272;26.932;2022-12-16T07:23:12;123.37;;;54.27;;
7965;SDS011;4028;43.272;26.932;2022-12-16T07:25:56;110.13;;;51.00;;
7965;SDS011;4028;43.272;26.932;2022-12-16T07:28:40;117.03;;;52.00;;
7965;SDS011;4028;43.272;26.932;2022-12-16T07:31:24;115.77;;;53.73;;
7965;SDS011;4028;43.272;26.932;2022-12-16T07:34:08;108.27;;;50.70;;
7965;SDS011;4028;43.272;26.932;2022-12-16T07:36:52;109.87;;;50.67;;
7965;SDS011;4028;43.272;26.932;2022-12-16T07:39:36;109.97;;;51.53;;
7965;SDS011;4028;43.272;26.932;2022-12-16T07:42:20;120.33;;;57.33;;
7965;SDS011;4028;43.272;26.932;2022-12-16T07:45:04;120.40;;;60.10;;
7965;SDS011;4028;43.272;26.932;2022-12-16T07:47:49;122.57;;;59.27;;
7965;SDS011;4028;43.272;26.932;2022-12-16T07:50:34;131.53;;;59.13;;
7965;SDS011;4028;43.272;26.932;2022-12-16T07:53:19;125.53;;;60.03;;
7965;SDS011;4028;43.272;26.932;2022-12-16T07:56:04;121.50;;;59.70;;
7965;SDS011;4028;43.272;26.932;2022-12-16T07:58:48;119.73;;;61.33;;
7965;SDS011;4028;43.272;26.932;2022-12-16T08:01:32;117.80;;;62.97;;
7965;SDS011;4028;43.272;26.932;2022-12-16T08:04:16;126.57;;;66.03;;
7965;SDS011;4028;43.272;26.932;2022-12-16T08:07:00;127.23;;;63.80;;
7965;SDS011;4028;43.272;26.932;2022-12-16T08:10:01;108.40;;;60.67;;
7965;SDS011;4028;43.272;26.932;2022-12-16T08:12:45;104.97;;;57.57;;
7965;SDS011;4028;43.272;26.932;2022-12-16T08:15:29;105.60;;;57.57;;
7965;SDS011;4028;43.272;26.932;2022-12-16T08:18:33;100.10;;;55.20;;
7965;SDS011;4028;43.272;26.932;2022-12-16T08:21:17;107.37;;;53.53;;
7965;SDS011;4028;43.272;26.932;2022-12-16T08:24:01;105.87;;;54.00;;
7965;SDS011;4028;43.272;26.932;2022-12-16T08:26:45;100.90;;;52.50;;
7965;SDS011;4028;43.272;26.932;2022-12-16T08:29:29;107.03;;;53.60;;
7965;SDS011;4028;43.272;26.932;2022-12-16T08:32:14;98.23;;;52.13;;
7965;SDS011;4028;43.272;26.932;2022-12-16T08:34:59;102.60;;;50.13;;
7965;SDS011;4028;43.272;26.932;2022-12-16T08:37:43;105.70;;;52.80;;
7965;SDS011;4028;43.272;26.932;2022-12-16T08:40:27;98.57;;;48.30;;
7965;SDS011;4028;43.272;26.932;2022-12-16T08:43:11;98.43;;;48.23;;
7965;SDS011;4028;43.272;26.932;2022-12-16T08:45:55;99.67;;;52.27;;
7965;SDS011;4028;43.272;26.932;2022-12-16T08:48:39;82.60;;;45.77;;
7965;SDS011;4028;43.272;26.932;2022-12-16T08:51:26;81.43;;;43.87;;
7965;SDS011;4028;43.272;26.932;2022-12-16T08:54:10;72.30;;;40.80;;
7965;SDS011;4028;43.272;26.932;2022-12-16T08:56:54;71.43;;;38.50;;
7965;SDS011;4028;43.272;26.932;2022-12-16T08:59:38;62.10;;;34.67;;
7965;SDS011;4028;43.272;26.932;2022-12-16T09:02:22;63.47;;;35.73;;
7965;SDS011;4028;43.272;26.932;2022-12-16T09:05:06;57.80;;;31.77;;
7965;SDS011;4028;43.272;26.932;2022-12-16T09:07:50;66.63;;;34.30;;
7965;SDS011;4028;43.272;26.932;2022-12-16T09:10:34;64.47;;;35.17;;
7965;SDS011;4028;43.272;26.932;2022-12-16T09:13:18;72.93;;;39.33;;
7965;SDS011;4028;43.272;26.932;2022-12-16T09:16:02;58.37;;;31.63;;
7965;SDS011;4028;43.272;26.932;2022-12-16T09:18:46;61.43;;;32.53;;
7965;SDS011;4028;43.272;26.932;2022-12-16T09:21:44;59.67;;;31.33;;
7965;SDS011;4028;43.272;26.932;2022-12-16T09:24:28;60.77;;;31.27;;
7965;SDS011;4028;43.272;26.932;2022-12-16T09:27:12;65.37;;;32.30;;
7965;SDS011;4028;43.272;26.932;2022-12-16T09:29:56;62.70;;;34.80;;
7965;SDS011;4028;43.272;26.932;2022-12-16T09:32:43;80.93;;;39.77;;
7965;SDS011;4028;43.272;26.932;2022-12-16T09:35:28;81.13;;;42.93;;
7965;SDS011;4028;43.272;26.932;2022-12-16T09:38:12;81.50;;;43.47;;
7965;SDS011;4028;43.272;26.932;2022-12-16T09:40:56;71.20;;;41.40;;
7965;SDS011;4028;43.272;26.932;2022-12-16T09:46:41;64.83;;;40.07;;
7965;SDS011;4028;43.272;26.932;2022-12-16T09:49:42;60.97;;;39.17;;
7965;SDS011;4028;43.272;26.932;2022-12-16T09:52:43;62.83;;;39.20;;
7965;SDS011;4028;43.272;26.932;2022-12-16T09:55:35;52.67;;;37.07;;
7965;SDS011;4028;43.272;26.932;2022-12-16T09:58:22;52.33;;;35.03;;
7965;SDS011;4028;43.272;26.932;2022-12-16T10:01:10;53.77;;;36.70;;
7965;SDS011;4028;43.272;26.932;2022-12-16T10:03:56;50.97;;;35.03;;
7965;SDS011;4028;43.272;26.932;2022-12-16T10:06:45;50.57;;;35.73;;
7965;SDS011;4028;43.272;26.932;2022-12-16T10:22:06;43.63;;;33.10;;
7965;SDS011;4028;43.272;26.932;2022-12-16T10:31:02;41.10;;;32.20;;
7965;SDS011;4028;43.272;26.932;2022-12-16T10:33:54;39.23;;;31.27;;
7965;SDS011;4028;43.272;26.932;2022-12-16T10:36:38;41.27;;;31.87;;
7965;SDS011;4028;43.272;26.932;2022-12-16T10:39:28;38.23;;;28.73;;
7965;SDS011;4028;43.272;26.932;2022-12-16T10:42:19;35.13;;;28.73;;
7965;SDS011;4028;43.272;26.932;2022-12-16T10:45:50;38.77;;;26.00;;
7965;SDS011;4028;43.272;26.932;2022-12-16T10:48:21;33.00;;;26.03;;
7965;SDS011;4028;43.272;26.932;2022-12-16T10:51:18;35.90;;;29.23;;
7965;SDS011;4028;43.272;26.932;2022-12-16T10:57:05;37.63;;;28.70;;
7965;SDS011;4028;43.272;26.932;2022-12-16T11:00:08;37.23;;;29.60;;
7965;SDS011;4028;43.272;26.932;2022-12-16T11:06:06;31.17;;;25.17;;
7965;SDS011;4028;43.272;26.932;2022-12-16T11:08:52;30.53;;;24.33;;
7965;SDS011;4028;43.272;26.932;2022-12-16T11:11:36;28.77;;;23.80;;
7965;SDS011;4028;43.272;26.932;2022-12-16T11:17:11;33.70;;;26.90;;
7965;SDS011;4028;43.272;26.932;2022-12-16T11:20:17;31.90;;;25.67;;
7965;SDS011;4028;43.272;26.932;2022-12-16T11:26:15;32.27;;;26.97;;
7965;SDS011;4028;43.272;26.932;2022-12-16T11:29:07;36.37;;;26.43;;
7965;SDS011;4028;43.272;26.932;2022-12-16T11:35:02;27.77;;;23.80;;
7965;SDS011;4028;43.272;26.932;2022-12-16T11:37:48;33.93;;;23.43;;
7965;SDS011;4028;43.272;26.932;2022-12-16T11:40:34;29.53;;;21.37;;
7965;SDS011;4028;43.272;26.932;2022-12-16T11:43:20;27.30;;;21.93;;
7965;SDS011;4028;43.272;26.932;2022-12-16T11:46:11;24.23;;;20.80;;
7965;SDS011;4028;43.272;26.932;2022-12-16T11:49:10;22.93;;;20.47;;
7965;SDS011;4028;43.272;26.932;2022-12-16T11:52:00;24.97;;;20.80;;
7965;SDS011;4028;43.272;26.932;2022-12-16T11:55:11;26.10;;;20.03;;
7965;SDS011;4028;43.272;26.932;2022-12-16T12:01:16;24.73;;;18.43;;
7965;SDS011;4028;43.272;26.932;2022-12-16T12:04:03;20.07;;;16.97;;
7965;SDS011;4028;43.272;26.932;2022-12-16T12:09:57;20.33;;;14.97;;
7965;SDS011;4028;43.272;26.932;2022-12-16T12:16:23;13.53;;;12.13;;
7965;SDS011;4028;43.272;26.932;2022-12-16T12:19:19;14.97;;;11.43;;
7965;SDS011;4028;43.272;26.932;2022-12-16T12:22:26;15.70;;;11.73;;
7965;SDS011;4028;43.272;26.932;2022-12-16T12:31:56;14.13;;;10.30;;
7965;SDS011;4028;43.272;26.932;2022-12-16T12:38:05;16.25;;;10.07;;
7965;SDS011;4028;43.272;26.932;2022-12-16T12:41:02;11.80;;;9.07;;
7965;SDS011;4028;43.272;26.932;2022-12-16T12:43:55;10.88;;;9.75;;
7965;SDS011;4028;43.272;26.932;2022-12-16T12:53:10;12.18;;;9.93;;
7965;SDS011;4028;43.272;26.932;2022-12-16T12:59:25;15.23;;;11.10;;
7965;SDS011;4028;43.272;26.932;2022-12-16T13:02:15;16.05;;;10.88;;
7965;SDS011;4028;43.272;26.932;2022-12-16T13:05:04;16.38;;;9.63;;
7965;SDS011;4028;43.272;26.932;2022-12-16T13:07:49;13.27;;;9.77;;
7965;SDS011;4028;43.272;26.932;2022-12-16T13:10:34;13.25;;;9.30;;
7965;SDS011;4028;43.272;26.932;2022-12-16T13:13:25;12.20;;;9.05;;
7965;SDS011;4028;43.272;26.932;2022-12-16T13:16:54;13.75;;;9.27;;
7965;SDS011;4028;43.272;26.932;2022-12-16T13:28:46;15.82;;;11.75;;
7965;SDS011;4028;43.272;26.932;2022-12-16T13:31:58;12.75;;;9.98;;
7965;SDS011;4028;43.272;26.932;2022-12-16T13:35:29;13.27;;;10.00;;
7965;SDS011;4028;43.272;26.932;2022-12-16T13:38:04;18.70;;;11.30;;
7965;SDS011;4028;43.272;26.932;2022-12-16T13:41:02;19.40;;;11.30;;
7965;SDS011;4028;43.272;26.932;2022-12-16T13:46:40;14.77;;;11.87;;
7965;SDS011;4028;43.272;26.932;2022-12-16T13:55:35;12.77;;;10.80;;
7965;SDS011;4028;43.272;26.932;2022-12-16T14:01:48;13.10;;;9.77;;
7965;SDS011;4028;43.272;26.932;2022-12-16T14:04:46;12.10;;;10.90;;
7965;SDS011;4028;43.272;26.932;2022-12-16T14:07:34;15.13;;;9.97;;
7965;SDS011;4028;43.272;26.932;2022-12-16T14:13:12;12.87;;;10.37;;
7965;SDS011;4028;43.272;26.932;2022-12-16T14:16:18;16.10;;;10.80;;
7965;SDS011;4028;43.272;26.932;2022-12-16T14:25:25;20.70;;;15.10;;
7965;SDS011;4028;43.272;26.932;2022-12-16T14:28:21;23.80;;;16.80;;
7965;SDS011;4028;43.272;26.932;2022-12-16T14:31:24;23.13;;;15.33;;
7965;SDS011;4028;43.272;26.932;2022-12-16T14:34:23;23.07;;;17.80;;
7965;SDS011;4028;43.272;26.932;2022-12-16T14:40:14;23.70;;;16.30;;
7965;SDS011;4028;43.272;26.932;2022-12-16T14:43:02;21.50;;;15.57;;
7965;SDS011;4028;43.272;26.932;2022-12-16T14:45:53;24.37;;;17.30;;
7965;SDS011;4028;43.272;26.932;2022-12-16T14:48:37;35.97;;;22.40;;
7965;SDS011;4028;43.272;26.932;2022-12-16T14:57:13;40.03;;;30.57;;
7965;SDS011;4028;43.272;26.932;2022-12-16T15:00:00;39.73;;;32.50;;
7965;SDS011;4028;43.272;26.932;2022-12-16T15:02:45;45.77;;;38.30;;
7965;SDS011;4028;43.272;26.932;2022-12-16T15:05:33;47.10;;;35.80;;
7965;SDS011;4028;43.272;26.932;2022-12-16T15:08:21;47.73;;;39.57;;
7965;SDS011;4028;43.272;26.932;2022-12-16T15:11:06;52.57;;;42.93;;
7965;SDS011;4028;43.272;26.932;2022-12-16T15:13:56;59.00;;;46.77;;
7965;SDS011;4028;43.272;26.932;2022-12-16T15:16:42;59.27;;;50.97;;
7965;SDS011;4028;43.272;26.932;2022-12-16T15:19:28;58.70;;;50.90;;
7965;SDS011;4028;43.272;26.932;2022-12-16T15:22:21;64.93;;;54.43;;
7965;SDS011;4028;43.272;26.932;2022-12-16T15:25:05;71.77;;;59.90;;
7965;SDS011;4028;43.272;26.932;2022-12-16T15:27:53;82.73;;;56.77;;
7965;SDS011;4028;43.272;26.932;2022-12-16T15:30:41;64.47;;;52.97;;
7965;SDS011;4028;43.272;26.932;2022-12-16T15:33:34;64.23;;;52.67;;
7965;SDS011;4028;43.272;26.932;2022-12-16T15:36:38;69.10;;;52.87;;
7965;SDS011;4028;43.272;26.932;2022-12-16T15:39:28;68.43;;;52.23;;
7965;SDS011;4028;43.272;26.932;2022-12-16T15:45:28;69.30;;;52.90;;
7965;SDS011;4028;43.272;26.932;2022-12-16T15:48:19;70.33;;;54.13;;
7965;SDS011;4028;43.272;26.932;2022-12-16T15:54:21;73.87;;;58.57;;
7965;SDS011;4028;43.272;26.932;2022-12-16T15:57:28;72.70;;;60.27;;
7965;SDS011;4028;43.272;26.932;2022-12-16T16:00:27;76.00;;;59.10;;
7965;SDS011;4028;43.272;26.932;2022-12-16T16:03:28;79.93;;;63.37;;
7965;SDS011;4028;43.272;26.932;2022-12-16T16:06:14;81.27;;;64.83;;
7965;SDS011;4028;43.272;26.932;2022-12-16T16:09:10;79.17;;;60.87;;
7965;SDS011;4028;43.272;26.932;2022-12-16T16:12:07;73.10;;;60.27;;
7965;SDS011;4028;43.272;26.932;2022-12-16T16:14:56;68.70;;;58.00;;
7965;SDS011;4028;43.272;26.932;2022-12-16T16:17:40;69.23;;;54.80;;
7965;SDS011;4028;43.272;26.932;2022-12-16T16:20:23;73.93;;;57.23;;
7965;SDS011;4028;43.272;26.932;2022-12-16T16:23:08;70.03;;;54.37;;
7965;SDS011;4028;43.272;26.932;2022-12-16T16:25:52;71.20;;;55.63;;
7965;SDS011;4028;43.272;26.932;2022-12-16T16:28:37;72.83;;;55.97;;
7965;SDS011;4028;43.272;26.932;2022-12-16T16:31:22;77.23;;;56.97;;
7965;SDS011;4028;43.272;26.932;2022-12-16T16:34:06;66.77;;;51.33;;
7965;SDS011;4028;43.272;26.932;2022-12-16T16:36:52;67.97;;;52.53;;
7965;SDS011;4028;43.272;26.932;2022-12-16T16:39:38;59.37;;;48.47;;
7965;SDS011;4028;43.272;26.932;2022-12-16T16:42:22;66.17;;;50.33;;
7965;SDS011;4028;43.272;26.932;2022-12-16T16:45:07;57.73;;;45.23;;
7965;SDS011;4028;43.272;26.932;2022-12-16T16:48:01;62.47;;;49.13;;
7965;SDS011;4028;43.272;26.932;2022-12-16T16:50:48;69.97;;;49.43;;
7965;SDS011;4028;43.272;26.932;2022-12-16T16:53:32;69.80;;;52.23;;
7965;SDS011;4028;43.272;26.932;2022-12-16T16:56:16;67.50;;;51.57;;
7965;SDS011;4028;43.272;26.932;2022-12-16T16:59:00;73.93;;;53.03;;
7965;SDS011;4028;43.272;26.932;2022-12-16T17:01:44;80.07;;;60.90;;
7965;SDS011;4028;43.272;26.932;2022-12-16T17:04:28;76.13;;;61.83;;
7965;SDS011;4028;43.272;26.932;2022-12-16T17:07:12;76.67;;;58.90;;
7965;SDS011;4028;43.272;26.932;2022-12-16T17:09:56;73.33;;;59.00;;
7965;SDS011;4028;43.272;26.932;2022-12-16T17:12:40;72.07;;;55.67;;
7965;SDS011;4028;43.272;26.932;2022-12-16T17:15:28;68.00;;;54.83;;
7965;SDS011;4028;43.272;26.932;2022-12-16T17:18:16;74.30;;;58.73;;
7965;SDS011;4028;43.272;26.932;2022-12-16T17:21:00;66.43;;;52.27;;
7965;SDS011;4028;43.272;26.932;2022-12-16T17:23:44;79.27;;;57.40;;
7965;SDS011;4028;43.272;26.932;2022-12-16T17:26:28;77.67;;;58.40;;
7965;SDS011;4028;43.272;26.932;2022-12-16T17:29:22;79.27;;;56.43;;
7965;SDS011;4028;43.272;26.932;2022-12-16T17:32:07;63.80;;;49.70;;
7965;SDS011;4028;43.272;26.932;2022-12-16T17:34:52;63.63;;;48.60;;
7965;SDS011;4028;43.272;26.932;2022-12-16T17:37:37;68.63;;;52.80;;
7965;SDS011;4028;43.272;26.932;2022-12-16T17:40:21;80.67;;;58.27;;
7965;SDS011;4028;43.272;26.932;2022-12-16T17:43:05;74.17;;;54.27;;
7965;SDS011;4028;43.272;26.932;2022-12-16T17:48:40;76.37;;;56.87;;
7965;SDS011;4028;43.272;26.932;2022-12-16T17:51:24;77.03;;;58.30;;
7965;SDS011;4028;43.272;26.932;2022-12-16T17:54:09;83.47;;;62.60;;
7965;SDS011;4028;43.272;26.932;2022-12-16T17:56:53;94.43;;;67.43;;
7965;SDS011;4028;43.272;26.932;2022-12-16T17:59:36;86.10;;;67.70;;
7965;SDS011;4028;43.272;26.932;2022-12-16T18:02:20;76.43;;;56.57;;
7965;SDS011;4028;43.272;26.932;2022-12-16T18:05:05;76.50;;;56.27;;
7965;SDS011;4028;43.272;26.932;2022-12-16T18:07:49;60.93;;;47.03;;
7965;SDS011;4028;43.272;26.932;2022-12-16T18:10:33;55.70;;;43.27;;
7965;SDS011;4028;43.272;26.932;2022-12-16T18:13:17;67.07;;;47.43;;
7965;SDS011;4028;43.272;26.932;2022-12-16T18:16:01;58.40;;;45.17;;
7965;SDS011;4028;43.272;26.932;2022-12-16T18:18:47;65.50;;;48.53;;
7965;SDS011;4028;43.272;26.932;2022-12-16T18:21:32;61.07;;;46.90;;
7965;SDS011;4028;43.272;26.932;2022-12-16T18:24:16;75.30;;;54.40;;
7965;SDS011;4028;43.272;26.932;2022-12-16T18:27:00;78.13;;;59.07;;
7965;SDS011;4028;43.272;26.932;2022-12-16T18:29:45;79.80;;;59.07;;
7965;SDS011;4028;43.272;26.932;2022-12-16T18:32:29;74.40;;;57.40;;